sensor_id;sensor_type;location;lat;lon;timestamp;pressure;altitude;pressure_sealevel;temperature;humidity
32642;BME280;19323;56.072;9.698;2023-02-20T00:01:51;100358.69;;;25.68;42.37
32642;BME280;19323;56.072;9.698;2023-02-20T00:04:18;100349.97;;;25.66;42.28
32642;BME280;19323;56.072;9.698;2023-02-20T00:06:43;100349.97;;;25.66;42.25
32642;BME280;19323;56.072;9.698;2023-02-20T00:09:08;100341.09;;;25.66;42.02
32642;BME280;19323;56.072;9.698;2023-02-20T00:11:33;100336.75;;;25.65;42.01
32642;BME280;19323;56.072;9.698;2023-02-20T00:13:59;100336.75;;;25.65;42.00
32642;BME280;19323;56.072;9.698;2023-02-20T00:16:24;100333.22;;;25.64;42.20
32642;BME280;19323;56.072;9.698;2023-02-20T00:18:49;100326.03;;;25.65;42.18
32642;BME280;19323;56.072;9.698;2023-02-20T00:21:14;100311.75;;;25.64;42.18
32642;BME280;19323;56.072;9.698;2023-02-20T00:23:40;100309.09;;;25.64;41.94
32642;BME280;19323;56.072;9.698;2023-02-20T00:26:11;100310.94;;;25.64;42.10
32642;BME280;19323;56.072;9.698;2023-02-20T00:28:40;100303.72;;;25.64;42.00
32642;BME280;19323;56.072;9.698;2023-02-20T00:31:06;100296.69;;;25.63;41.95
32642;BME280;19323;56.072;9.698;2023-02-20T00:33:31;100302.06;;;25.63;41.99
32642;BME280;19323;56.072;9.698;2023-02-20T00:35:57;100292.16;;;25.64;42.10
32642;BME280;19323;56.072;9.698;2023-02-20T00:38:22;100291.31;;;25.63;42.10
32642;BME280;19323;56.072;9.698;2023-02-20T00:40:48;100295.00;;;25.62;41.97
32642;BME280;19323;56.072;9.698;2023-02-20T00:43:13;100286.97;;;25.62;42.01
32642;BME280;19323;56.072;9.698;2023-02-20T00:45:38;100277.09;;;25.63;42.01
32642;BME280;19323;56.072;9.698;2023-02-20T00:48:03;100273.53;;;25.62;42.04
32642;BME280;19323;56.072;9.698;2023-02-20T00:50:28;100253.94;;;25.62;42.02
32642;BME280;19323;56.072;9.698;2023-02-20T00:52:54;100244.03;;;25.62;42.14
32642;BME280;19323;56.072;9.698;2023-02-20T00:55:19;100234.34;;;25.61;41.85
32642;BME280;19323;56.072;9.698;2023-02-20T00:57:44;100225.47;;;25.61;41.97
32642;BME280;19323;56.072;9.698;2023-02-20T01:00:15;100218.25;;;25.61;42.10
32642;BME280;19323;56.072;9.698;2023-02-20T01:02:40;100227.28;;;25.60;42.04
32642;BME280;19323;56.072;9.698;2023-02-20T01:05:05;100209.38;;;25.61;41.93
32642;BME280;19323;56.072;9.698;2023-02-20T01:07:30;100202.31;;;25.60;42.11
32642;BME280;19323;56.072;9.698;2023-02-20T01:09:56;100179.00;;;25.60;42.11
32642;BME280;19323;56.072;9.698;2023-02-20T01:12:21;100169.31;;;25.59;41.84
32642;BME280;19323;56.072;9.698;2023-02-20T01:14:46;100151.38;;;25.60;41.81
32642;BME280;19323;56.072;9.698;2023-02-20T01:17:11;100136.09;;;25.60;41.79
32642;BME280;19323;56.072;9.698;2023-02-20T01:19:37;100145.19;;;25.59;41.82
32642;BME280;19323;56.072;9.698;2023-02-20T01:22:02;100128.25;;;25.59;41.79
32642;BME280;19323;56.072;9.698;2023-02-20T01:24:30;100117.53;;;25.59;41.73
32642;BME280;19323;56.072;9.698;2023-02-20T01:26:55;100120.22;;;25.59;41.89
32642;BME280;19323;56.072;9.698;2023-02-20T01:29:20;100125.56;;;25.59;41.87
32642;BME280;19323;56.072;9.698;2023-02-20T01:31:49;100118.34;;;25.59;41.94
32642;BME280;19323;56.072;9.698;2023-02-20T01:34:14;100113.00;;;25.59;41.72
32642;BME280;19323;56.072;9.698;2023-02-20T01:36:44;100107.63;;;25.59;41.71
32642;BME280;19323;56.072;9.698;2023-02-20T01:39:09;100119.38;;;25.58;41.70
32642;BME280;19323;56.072;9.698;2023-02-20T01:41:34;100102.44;;;25.58;41.78
32642;BME280;19323;56.072;9.698;2023-02-20T01:43:59;100095.25;;;25.58;41.64
32642;BME280;19323;56.072;9.698;2023-02-20T01:51:52;100127.59;;;25.57;41.69
32642;BME280;19323;56.072;9.698;2023-02-20T01:54:25;100155.25;;;25.57;41.63
32642;BME280;19323;56.072;9.698;2023-02-20T01:56:51;100128.41;;;25.57;41.65
32642;BME280;19323;56.072;9.698;2023-02-20T01:59:17;100125.75;;;25.57;41.83
32642;BME280;19323;56.072;9.698;2023-02-20T02:01:44;100117.69;;;25.57;41.72
32642;BME280;19323;56.072;9.698;2023-02-20T02:04:10;100115.00;;;25.57;41.81
32642;BME280;19323;56.072;9.698;2023-02-20T02:06:37;100059.72;;;25.56;41.52
32642;BME280;19323;56.072;9.698;2023-02-20T02:09:11;100080.31;;;25.56;41.74
32642;BME280;19323;56.072;9.698;2023-02-20T02:11:37;100069.59;;;25.56;41.45
32642;BME280;19323;56.072;9.698;2023-02-20T02:14:03;100044.78;;;25.54;41.81
32642;BME280;19323;56.072;9.698;2023-02-20T02:16:30;100040.09;;;25.56;41.44
32642;BME280;19323;56.072;9.698;2023-02-20T02:21:50;100032.25;;;25.54;41.75
32642;BME280;19323;56.072;9.698;2023-02-20T02:27:04;100014.47;;;25.53;41.62
32642;BME280;19323;56.072;9.698;2023-02-20T02:34:48;100004.78;;;25.52;41.55
32642;BME280;19323;56.072;9.698;2023-02-20T02:37:29;100008.28;;;25.53;41.52
32642;BME280;19323;56.072;9.698;2023-02-20T02:45:06;99983.13;;;25.54;41.43
32642;BME280;19323;56.072;9.698;2023-02-20T02:47:36;99974.25;;;25.53;41.44
32642;BME280;19323;56.072;9.698;2023-02-20T02:50:05;99948.47;;;25.52;41.55
32642;BME280;19323;56.072;9.698;2023-02-20T02:52:32;99946.63;;;25.53;41.44
32642;BME280;19323;56.072;9.698;2023-02-20T02:55:17;99920.81;;;25.52;41.86
32642;BME280;19323;56.072;9.698;2023-02-20T02:57:43;99908.25;;;25.52;41.61
32642;BME280;19323;56.072;9.698;2023-02-20T03:00:09;99916.28;;;25.52;41.29
32642;BME280;19323;56.072;9.698;2023-02-20T03:02:47;99908.25;;;25.52;41.38
32642;BME280;19323;56.072;9.698;2023-02-20T03:05:15;99923.47;;;25.52;41.38
32642;BME280;19323;56.072;9.698;2023-02-20T03:07:42;99918.97;;;25.52;41.58
32642;BME280;19323;56.072;9.698;2023-02-20T03:10:10;99898.53;;;25.51;41.26
32642;BME280;19323;56.072;9.698;2023-02-20T03:12:44;99897.69;;;25.51;41.28
32642;BME280;19323;56.072;9.698;2023-02-20T03:15:20;99899.56;;;25.50;41.40
32642;BME280;19323;56.072;9.698;2023-02-20T03:20:34;99890.69;;;25.49;41.67
32642;BME280;19323;56.072;9.698;2023-02-20T03:23:00;99859.94;;;25.37;41.33
32642;BME280;19323;56.072;9.698;2023-02-20T03:28:04;99867.53;;;25.48;41.23
32642;BME280;19323;56.072;9.698;2023-02-20T03:30:42;99880.13;;;25.48;41.29
32642;BME280;19323;56.072;9.698;2023-02-20T03:33:11;99856.81;;;25.48;41.60
32642;BME280;19323;56.072;9.698;2023-02-20T03:35:56;99852.50;;;25.47;41.41
32642;BME280;19323;56.072;9.698;2023-02-20T03:38:43;99837.22;;;25.48;41.37
32642;BME280;19323;56.072;9.698;2023-02-20T03:41:29;99800.69;;;25.47;41.29
32642;BME280;19323;56.072;9.698;2023-02-20T03:44:14;99768.53;;;25.47;41.28
32642;BME280;19323;56.072;9.698;2023-02-20T03:46:41;99766.34;;;25.27;41.19
32642;BME280;19323;56.072;9.698;2023-02-20T03:49:11;99856.16;;;25.46;41.41
32642;BME280;19323;56.072;9.698;2023-02-20T03:51:37;99866.06;;;25.46;41.26
32642;BME280;19323;56.072;9.698;2023-02-20T03:54:21;99826.84;;;25.45;41.48
32642;BME280;19323;56.072;9.698;2023-02-20T03:56:48;99825.03;;;25.45;41.27
32642;BME280;19323;56.072;9.698;2023-02-20T03:59:21;99828.53;;;25.46;41.52
32642;BME280;19323;56.072;9.698;2023-02-20T04:01:48;99830.19;;;25.47;41.26
32642;BME280;19323;56.072;9.698;2023-02-20T04:04:19;99816.97;;;25.45;41.58
32642;BME280;19323;56.072;9.698;2023-02-20T04:06:47;99821.47;;;25.45;41.38
32642;BME280;19323;56.072;9.698;2023-02-20T04:09:16;99809.94;;;25.44;41.17
32642;BME280;19323;56.072;9.698;2023-02-20T04:11:44;99811.78;;;25.44;41.31
32642;BME280;19323;56.072;9.698;2023-02-20T04:14:12;99821.47;;;25.45;41.22
32642;BME280;19323;56.072;9.698;2023-02-20T04:16:45;99831.38;;;25.44;41.21
32642;BME280;19323;56.072;9.698;2023-02-20T04:19:12;99833.25;;;25.44;41.17
32642;BME280;19323;56.072;9.698;2023-02-20T04:21:38;99842.94;;;25.45;41.26
32642;BME280;19323;56.072;9.698;2023-02-20T04:24:06;99825.19;;;25.44;41.29
32642;BME280;19323;56.072;9.698;2023-02-20T04:26:32;99806.44;;;25.44;41.18
32642;BME280;19323;56.072;9.698;2023-02-20T04:28:58;99790.34;;;25.44;41.23
32642;BME280;19323;56.072;9.698;2023-02-20T04:31:23;99757.13;;;25.45;41.21
32642;BME280;19323;56.072;9.698;2023-02-20T04:33:49;99752.81;;;25.44;41.29
32642;BME280;19323;56.072;9.698;2023-02-20T04:36:14;99796.53;;;25.44;41.19
32642;BME280;19323;56.072;9.698;2023-02-20T04:38:39;99783.13;;;25.44;41.24
32642;BME280;19323;56.072;9.698;2023-02-20T04:41:04;99783.94;;;25.45;41.50
32642;BME280;19323;56.072;9.698;2023-02-20T04:43:29;99773.22;;;25.45;41.22
32642;BME280;19323;56.072;9.698;2023-02-20T04:45:55;99774.09;;;25.45;41.43
32642;BME280;19323;56.072;9.698;2023-02-20T04:48:20;99779.44;;;25.45;41.14
32642;BME280;19323;56.072;9.698;2023-02-20T04:50:45;99757.13;;;25.45;41.25
32642;BME280;19323;56.072;9.698;2023-02-20T04:53:10;99775.91;;;25.45;41.40
32642;BME280;19323;56.072;9.698;2023-02-20T04:55:35;99776.78;;;25.45;41.45
32642;BME280;19323;56.072;9.698;2023-02-20T04:58:00;99786.63;;;25.45;41.68
32642;BME280;19323;56.072;9.698;2023-02-20T05:00:26;99769.56;;;25.46;41.39
32642;BME280;19323;56.072;9.698;2023-02-20T05:02:51;99744.78;;;25.44;41.34
32642;BME280;19323;56.072;9.698;2023-02-20T05:05:18;99729.50;;;25.44;41.56
32642;BME280;19323;56.072;9.698;2023-02-20T05:07:43;99736.56;;;25.45;41.26
32642;BME280;19323;56.072;9.698;2023-02-20T05:10:11;99755.50;;;25.44;41.51
32642;BME280;19323;56.072;9.698;2023-02-20T05:12:37;99750.13;;;25.44;41.53
32642;BME280;19323;56.072;9.698;2023-02-20T05:15:02;99763.53;;;25.44;41.85
32642;BME280;19323;56.072;9.698;2023-02-20T05:17:28;99736.72;;;25.44;41.65
32642;BME280;19323;56.072;9.698;2023-02-20T05:19:53;99735.91;;;25.43;41.58
32642;BME280;19323;56.072;9.698;2023-02-20T05:22:18;99728.69;;;25.44;41.99
32642;BME280;19323;56.072;9.698;2023-02-20T05:24:43;99729.50;;;25.44;41.89
32642;BME280;19323;56.072;9.698;2023-02-20T05:27:09;99760.84;;;25.44;41.86
32642;BME280;19323;56.072;9.698;2023-02-20T05:29:34;99746.63;;;25.43;41.69
32642;BME280;19323;56.072;9.698;2023-02-20T05:32:00;99726.81;;;25.44;41.87
32642;BME280;19323;56.072;9.698;2023-02-20T05:34:25;99725.19;;;25.43;42.04
32642;BME280;19323;56.072;9.698;2023-02-20T05:36:50;99743.09;;;25.43;41.81
32642;BME280;19323;56.072;9.698;2023-02-20T05:39:16;99723.50;;;25.42;42.04
32642;BME280;19323;56.072;9.698;2023-02-20T05:41:41;99706.41;;;25.43;41.98
32642;BME280;19323;56.072;9.698;2023-02-20T05:44:06;99694.00;;;25.42;42.03
32642;BME280;19323;56.072;9.698;2023-02-20T05:46:34;99689.47;;;25.43;42.00
32642;BME280;19323;56.072;9.698;2023-02-20T05:49:02;99722.50;;;25.43;41.99
32642;BME280;19323;56.072;9.698;2023-02-20T05:51:28;99715.28;;;25.44;42.15
32642;BME280;19323;56.072;9.698;2023-02-20T05:53:53;99707.06;;;25.45;41.97
32642;BME280;19323;56.072;9.698;2023-02-20T05:56:19;99715.75;;;25.47;42.24
32642;BME280;19323;56.072;9.698;2023-02-20T05:58:44;99719.25;;;25.48;42.37
32642;BME280;19323;56.072;9.698;2023-02-20T06:01:19;99706.03;;;25.46;42.53
32642;BME280;19323;56.072;9.698;2023-02-20T06:03:45;99691.81;;;25.46;42.55
32642;BME280;19323;56.072;9.698;2023-02-20T06:06:10;99698.16;;;25.45;42.42
32642;BME280;19323;56.072;9.698;2023-02-20T06:08:36;99682.28;;;25.43;42.65
32642;BME280;19323;56.072;9.698;2023-02-20T06:11:01;99678.75;;;25.43;42.64
32642;BME280;19323;56.072;9.698;2023-02-20T06:13:26;99664.53;;;25.42;42.56
32642;BME280;19323;56.072;9.698;2023-02-20T06:15:51;99658.34;;;25.42;42.63
32642;BME280;19323;56.072;9.698;2023-02-20T06:18:16;99666.38;;;25.42;42.79
32642;BME280;19323;56.072;9.698;2023-02-20T06:20:41;99645.09;;;25.40;42.43
32642;BME280;19323;56.072;9.698;2023-02-20T06:23:06;99646.97;;;25.40;42.74
32642;BME280;19323;56.072;9.698;2023-02-20T06:25:32;99642.63;;;25.39;42.78
32642;BME280;19323;56.072;9.698;2023-02-20T06:27:57;99634.59;;;25.39;42.90
32642;BME280;19323;56.072;9.698;2023-02-20T06:30:22;99619.78;;;25.28;42.78
32642;BME280;19323;56.072;9.698;2023-02-20T06:32:47;99627.53;;;25.38;42.77
32642;BME280;19323;56.072;9.698;2023-02-20T06:35:12;99621.38;;;25.37;42.70
32642;BME280;19323;56.072;9.698;2023-02-20T06:37:37;99616.00;;;25.37;42.95
32642;BME280;19323;56.072;9.698;2023-02-20T06:40:04;99625.91;;;25.37;42.85
32642;BME280;19323;56.072;9.698;2023-02-20T06:42:29;99621.38;;;25.37;42.80
32642;BME280;19323;56.072;9.698;2023-02-20T06:44:54;99615.19;;;25.37;42.84
32642;BME280;19323;56.072;9.698;2023-02-20T06:47:19;99621.38;;;25.37;42.92
32642;BME280;19323;56.072;9.698;2023-02-20T06:49:44;99637.44;;;25.37;42.72
32642;BME280;19323;56.072;9.698;2023-02-20T06:52:10;99634.94;;;25.36;42.80
32642;BME280;19323;56.072;9.698;2023-02-20T06:54:35;99629.56;;;25.36;42.89
32642;BME280;19323;56.072;9.698;2023-02-20T06:57:00;99636.63;;;25.37;42.86
32642;BME280;19323;56.072;9.698;2023-02-20T06:59:26;99633.28;;;25.35;42.83
32642;BME280;19323;56.072;9.698;2023-02-20T07:01:51;99618.84;;;25.36;42.89
32642;BME280;19323;56.072;9.698;2023-02-20T07:04:25;99644.00;;;25.35;42.73
32642;BME280;19323;56.072;9.698;2023-02-20T07:06:50;99627.94;;;25.35;42.69
32642;BME280;19323;56.072;9.698;2023-02-20T07:09:15;99634.94;;;25.36;42.83
32642;BME280;19323;56.072;9.698;2023-02-20T07:11:41;99633.28;;;25.35;42.83
32642;BME280;19323;56.072;9.698;2023-02-20T07:14:06;99617.22;;;25.35;42.93
32642;BME280;19323;56.072;9.698;2023-02-20T07:16:31;99624.41;;;25.34;42.77
32642;BME280;19323;56.072;9.698;2023-02-20T07:18:57;99626.25;;;25.34;42.77
32642;BME280;19323;56.072;9.698;2023-02-20T07:21:22;99617.22;;;25.35;42.96
32642;BME280;19323;56.072;9.698;2023-02-20T07:23:47;99593.56;;;25.23;42.80
32642;BME280;19323;56.072;9.698;2023-02-20T07:26:20;99620.88;;;25.34;42.58
32642;BME280;19323;56.072;9.698;2023-02-20T07:28:45;99597.81;;;25.33;42.80
32642;BME280;19323;56.072;9.698;2023-02-20T07:31:10;99607.69;;;25.32;42.98
32642;BME280;19323;56.072;9.698;2023-02-20T07:33:35;99601.31;;;25.33;42.97
32642;BME280;19323;56.072;9.698;2023-02-20T07:36:01;99575.53;;;25.32;43.06
32642;BME280;19323;56.072;9.698;2023-02-20T07:38:27;99609.53;;;25.32;42.72
32642;BME280;19323;56.072;9.698;2023-02-20T07:40:52;99580.03;;;25.32;42.95
32642;BME280;19323;56.072;9.698;2023-02-20T07:43:17;99574.69;;;25.32;42.80
32642;BME280;19323;56.072;9.698;2023-02-20T07:45:43;99565.81;;;25.31;42.70
32642;BME280;19323;56.072;9.698;2023-02-20T07:48:08;99576.53;;;25.31;43.06
32642;BME280;19323;56.072;9.698;2023-02-20T07:50:33;99574.69;;;25.32;42.79
32642;BME280;19323;56.072;9.698;2023-02-20T07:52:58;99583.75;;;25.31;42.85
32642;BME280;19323;56.072;9.698;2023-02-20T07:55:23;99584.56;;;25.31;42.74
32642;BME280;19323;56.072;9.698;2023-02-20T07:57:48;99601.47;;;25.32;42.81
32642;BME280;19323;56.072;9.698;2023-02-20T08:00:19;99600.66;;;25.31;42.79
32642;BME280;19323;56.072;9.698;2023-02-20T08:02:44;99587.25;;;25.31;42.77
32642;BME280;19323;56.072;9.698;2023-02-20T08:05:10;99575.72;;;25.31;42.82
32642;BME280;19323;56.072;9.698;2023-02-20T08:07:35;99584.56;;;25.31;42.76
32642;BME280;19323;56.072;9.698;2023-02-20T08:10:01;99584.56;;;25.31;42.95
32642;BME280;19323;56.072;9.698;2023-02-20T08:12:26;99572.00;;;25.32;42.76
32642;BME280;19323;56.072;9.698;2023-02-20T08:14:51;99568.50;;;25.31;42.68
32642;BME280;19323;56.072;9.698;2023-02-20T08:17:17;99584.56;;;25.31;42.83
32642;BME280;19323;56.072;9.698;2023-02-20T08:19:42;99577.34;;;25.32;42.84
32642;BME280;19323;56.072;9.698;2023-02-20T08:22:08;99588.06;;;25.32;42.78
32642;BME280;19323;56.072;9.698;2023-02-20T08:24:33;99579.22;;;25.31;42.60
32642;BME280;19323;56.072;9.698;2023-02-20T08:26:58;99583.75;;;25.31;42.55
32642;BME280;19323;56.072;9.698;2023-02-20T08:29:23;99585.59;;;25.30;42.58
32642;BME280;19323;56.072;9.698;2023-02-20T08:31:48;99528.38;;;25.08;42.62
32642;BME280;19323;56.072;9.698;2023-02-20T08:34:14;99568.50;;;25.31;42.83
32642;BME280;19323;56.072;9.698;2023-02-20T08:36:39;99579.22;;;25.31;42.72
32642;BME280;19323;56.072;9.698;2023-02-20T08:39:04;99581.06;;;25.31;42.58
32642;BME280;19323;56.072;9.698;2023-02-20T08:41:30;99571.19;;;25.31;42.54
32642;BME280;19323;56.072;9.698;2023-02-20T08:43:55;99574.03;;;25.29;42.64
32642;BME280;19323;56.072;9.698;2023-02-20T08:46:20;99567.66;;;25.31;42.61
32642;BME280;19323;56.072;9.698;2023-02-20T08:48:45;99563.31;;;25.29;42.79
32642;BME280;19323;56.072;9.698;2023-02-20T08:51:11;99558.81;;;25.30;42.72
32642;BME280;19323;56.072;9.698;2023-02-20T08:53:36;99556.13;;;25.30;42.35
32642;BME280;19323;56.072;9.698;2023-02-20T08:56:02;99576.72;;;25.29;42.76
32642;BME280;19323;56.072;9.698;2023-02-20T08:58:28;99567.84;;;25.29;42.54
32642;BME280;19323;56.072;9.698;2023-02-20T09:00:53;99565.16;;;25.29;42.58
32642;BME280;19323;56.072;9.698;2023-02-20T09:03:19;99551.75;;;25.29;42.60
32642;BME280;19323;56.072;9.698;2023-02-20T09:05:44;99557.13;;;25.29;42.41
32642;BME280;19323;56.072;9.698;2023-02-20T09:08:10;99571.34;;;25.29;42.65
32642;BME280;19323;56.072;9.698;2023-02-20T09:10:35;99565.16;;;25.29;42.88
32642;BME280;19323;56.072;9.698;2023-02-20T09:13:01;99562.47;;;25.29;42.63
32642;BME280;19323;56.072;9.698;2023-02-20T09:15:26;99558.16;;;25.28;42.68
32642;BME280;19323;56.072;9.698;2023-02-20T09:17:51;99556.31;;;25.28;42.69
32642;BME280;19323;56.072;9.698;2023-02-20T09:20:18;99561.66;;;25.28;42.71
32642;BME280;19323;56.072;9.698;2023-02-20T09:22:44;99570.69;;;25.27;42.51
32642;BME280;19323;56.072;9.698;2023-02-20T09:25:10;99573.38;;;25.27;42.56
32642;BME280;19323;56.072;9.698;2023-02-20T09:27:35;99563.50;;;25.28;42.59
32642;BME280;19323;56.072;9.698;2023-02-20T09:30:00;99554.44;;;25.29;42.73
32642;BME280;19323;56.072;9.698;2023-02-20T09:32:25;99558.97;;;25.28;42.78
32642;BME280;19323;56.072;9.698;2023-02-20T09:34:51;99562.47;;;25.29;42.63
32642;BME280;19323;56.072;9.698;2023-02-20T09:37:16;99546.41;;;25.29;42.53
32642;BME280;19323;56.072;9.698;2023-02-20T09:39:41;99546.41;;;25.29;42.81
32642;BME280;19323;56.072;9.698;2023-02-20T09:44:39;99536.50;;;25.29;42.77
32642;BME280;19323;56.072;9.698;2023-02-20T09:47:22;99555.28;;;25.29;42.52
32642;BME280;19323;56.072;9.698;2023-02-20T09:49:49;99555.28;;;25.29;42.51
32642;BME280;19323;56.072;9.698;2023-02-20T09:52:14;99564.34;;;25.28;42.66
32642;BME280;19323;56.072;9.698;2023-02-20T09:54:51;99566.84;;;25.30;42.63
32642;BME280;19323;56.072;9.698;2023-02-20T09:57:20;99564.16;;;25.30;42.71
32642;BME280;19323;56.072;9.698;2023-02-20T09:59:48;99566.84;;;25.30;42.57
32642;BME280;19323;56.072;9.698;2023-02-20T10:04:43;99567.84;;;25.29;42.56
32642;BME280;19323;56.072;9.698;2023-02-20T10:09:41;99549.91;;;25.29;42.54
32642;BME280;19323;56.072;9.698;2023-02-20T10:14:47;99568.66;;;25.29;42.61
32642;BME280;19323;56.072;9.698;2023-02-20T10:20:19;99561.47;;;25.30;42.63
32642;BME280;19323;56.072;9.698;2023-02-20T10:22:48;99566.84;;;25.30;42.47
32642;BME280;19323;56.072;9.698;2023-02-20T10:30:19;99573.03;;;25.31;42.61
32642;BME280;19323;56.072;9.698;2023-02-20T10:32:48;99582.94;;;25.30;42.65
32642;BME280;19323;56.072;9.698;2023-02-20T10:35:15;99576.72;;;25.29;42.61
32642;BME280;19323;56.072;9.698;2023-02-20T10:37:44;99585.59;;;25.30;42.60
32642;BME280;19323;56.072;9.698;2023-02-20T10:40:17;99547.13;;;25.08;42.27
32642;BME280;19323;56.072;9.698;2023-02-20T10:42:51;99589.09;;;25.31;42.49
32642;BME280;19323;56.072;9.698;2023-02-20T10:45:21;99588.94;;;25.32;42.61
32642;BME280;19323;56.072;9.698;2023-02-20T10:47:53;99589.09;;;25.31;42.66
32642;BME280;19323;56.072;9.698;2023-02-20T10:55:33;99590.75;;;25.32;42.56
32642;BME280;19323;56.072;9.698;2023-02-20T10:58:21;99543.25;;;24.96;42.62
32642;BME280;19323;56.072;9.698;2023-02-20T11:00:55;99606.84;;;25.32;42.59
32642;BME280;19323;56.072;9.698;2023-02-20T11:03:24;99617.56;;;25.32;42.55
32642;BME280;19323;56.072;9.698;2023-02-20T11:05:52;99609.72;;;25.30;42.47
32642;BME280;19323;56.072;9.698;2023-02-20T11:08:18;99601.47;;;25.32;42.60
32642;BME280;19323;56.072;9.698;2023-02-20T11:10:46;99622.91;;;25.32;42.60
32642;BME280;19323;56.072;9.698;2023-02-20T11:13:12;99616.72;;;25.31;42.58
32642;BME280;19323;56.072;9.698;2023-02-20T11:15:39;99617.56;;;25.32;42.45
32642;BME280;19323;56.072;9.698;2023-02-20T11:18:15;99620.25;;;25.32;42.48
32642;BME280;19323;56.072;9.698;2023-02-20T11:20:44;99619.25;;;25.33;42.82
32642;BME280;19323;56.072;9.698;2023-02-20T11:23:17;99625.44;;;25.33;42.50
32642;BME280;19323;56.072;9.698;2023-02-20T11:25:55;99623.78;;;25.32;42.51
32642;BME280;19323;56.072;9.698;2023-02-20T11:28:36;99624.59;;;25.33;42.65
32642;BME280;19323;56.072;9.698;2023-02-20T11:31:04;99633.63;;;25.32;42.68
32642;BME280;19323;56.072;9.698;2023-02-20T11:33:31;99593.78;;;25.14;42.61
32642;BME280;19323;56.072;9.698;2023-02-20T11:36:07;99627.28;;;25.33;42.63
32642;BME280;19323;56.072;9.698;2023-02-20T11:38:34;99636.97;;;25.34;42.96
32642;BME280;19323;56.072;9.698;2023-02-20T11:41:01;99639.47;;;25.35;42.59
32642;BME280;19323;56.072;9.698;2023-02-20T11:43:31;99629.56;;;25.36;42.68
32642;BME280;19323;56.072;9.698;2023-02-20T11:46:16;99637.63;;;25.36;42.67
32642;BME280;19323;56.072;9.698;2023-02-20T11:49:02;99632.91;;;25.38;42.42
32642;BME280;19323;56.072;9.698;2023-02-20T11:51:33;99641.59;;;25.40;42.51
32642;BME280;19323;56.072;9.698;2023-02-20T11:54:05;99656.88;;;25.39;42.44
32642;BME280;19323;56.072;9.698;2023-02-20T11:56:31;99622.66;;;25.41;42.50
32642;BME280;19323;56.072;9.698;2023-02-20T11:59:11;99636.88;;;25.42;42.74
32642;BME280;19323;56.072;9.698;2023-02-20T12:01:37;99627.00;;;25.42;42.38
32642;BME280;19323;56.072;9.698;2023-02-20T12:04:12;99633.81;;;25.45;42.45
32642;BME280;19323;56.072;9.698;2023-02-20T12:06:41;99618.38;;;25.47;42.36
32642;BME280;19323;56.072;9.698;2023-02-20T12:09:10;99635.13;;;25.49;42.37
32642;BME280;19323;56.072;9.698;2023-02-20T12:11:37;99604.44;;;25.52;42.28
32642;BME280;19323;56.072;9.698;2023-02-20T12:14:05;99622.38;;;25.51;42.40
32642;BME280;19323;56.072;9.698;2023-02-20T12:19:04;99610.00;;;25.50;42.53
32642;BME280;19323;56.072;9.698;2023-02-20T12:21:36;99615.16;;;25.52;42.36
32642;BME280;19323;56.072;9.698;2023-02-20T12:26:45;99618.03;;;25.50;42.61
32642;BME280;19323;56.072;9.698;2023-02-20T12:37:07;99628.13;;;25.48;42.44
32642;BME280;19323;56.072;9.698;2023-02-20T12:42:10;99637.16;;;25.47;42.67
32642;BME280;19323;56.072;9.698;2023-02-20T12:45:02;99631.78;;;25.47;42.71
32642;BME280;19323;56.072;9.698;2023-02-20T12:47:33;99646.22;;;25.46;42.73
32642;BME280;19323;56.072;9.698;2023-02-20T12:50:09;99634.69;;;25.45;42.46
32642;BME280;19323;56.072;9.698;2023-02-20T12:52:47;99636.50;;;25.45;42.47
32642;BME280;19323;56.072;9.698;2023-02-20T12:55:17;99635.69;;;25.44;42.66
32642;BME280;19323;56.072;9.698;2023-02-20T12:58:03;99640.22;;;25.44;42.67
32642;BME280;19323;56.072;9.698;2023-02-20T13:00:32;99629.50;;;25.44;42.48
32642;BME280;19323;56.072;9.698;2023-02-20T13:03:05;99634.03;;;25.43;42.73
32642;BME280;19323;56.072;9.698;2023-02-20T13:05:34;99636.72;;;25.43;42.67
32642;BME280;19323;56.072;9.698;2023-02-20T13:08:08;99636.72;;;25.43;42.63
32642;BME280;19323;56.072;9.698;2023-02-20T13:10:34;99643.91;;;25.43;42.76
32642;BME280;19323;56.072;9.698;2023-02-20T13:13:07;99648.25;;;25.44;42.67
32642;BME280;19323;56.072;9.698;2023-02-20T13:15:42;99646.59;;;25.43;42.64
32642;BME280;19323;56.072;9.698;2023-02-20T13:20:52;99643.91;;;25.43;42.51
32642;BME280;19323;56.072;9.698;2023-02-20T13:25:44;99642.91;;;25.44;42.78
32642;BME280;19323;56.072;9.698;2023-02-20T13:30:44;99650.94;;;25.44;42.76
32642;BME280;19323;56.072;9.698;2023-02-20T13:33:24;99650.13;;;25.43;42.46
32642;BME280;19323;56.072;9.698;2023-02-20T13:35:52;99648.91;;;25.46;42.42
32642;BME280;19323;56.072;9.698;2023-02-20T13:38:18;99665.81;;;25.46;42.58
32642;BME280;19323;56.072;9.698;2023-02-20T13:45:48;99647.88;;;25.47;42.31
32642;BME280;19323;56.072;9.698;2023-02-20T13:48:17;99656.78;;;25.47;42.52
32642;BME280;19323;56.072;9.698;2023-02-20T13:50:43;99647.88;;;25.47;42.29
32642;BME280;19323;56.072;9.698;2023-02-20T13:53:08;99647.72;;;25.48;42.35
32642;BME280;19323;56.072;9.698;2023-02-20T13:55:33;99642.34;;;25.48;42.46
32642;BME280;19323;56.072;9.698;2023-02-20T13:58:09;99643.00;;;25.51;42.22
32642;BME280;19323;56.072;9.698;2023-02-20T14:00:41;99653.16;;;25.55;42.10
32642;BME280;19323;56.072;9.698;2023-02-20T14:03:09;99646.78;;;25.56;42.00
32642;BME280;19323;56.072;9.698;2023-02-20T14:05:35;99659.16;;;25.57;42.04
32642;BME280;19323;56.072;9.698;2023-02-20T14:08:00;99659.16;;;25.57;41.77
32642;BME280;19323;56.072;9.698;2023-02-20T14:12:58;99670.53;;;25.59;41.75
32642;BME280;19323;56.072;9.698;2023-02-20T14:15:24;99657.13;;;25.59;41.58
32642;BME280;19323;56.072;9.698;2023-02-20T14:17:50;99665.19;;;25.59;41.76
32642;BME280;19323;56.072;9.698;2023-02-20T14:20:24;99677.75;;;25.59;41.66
32642;BME280;19323;56.072;9.698;2023-02-20T14:23:04;99656.97;;;25.61;41.53